createdAt,value
2022-09-27T00:00:27.851Z,2.92
2022-09-27T00:02:54.598Z,2.60
2022-09-27T00:05:21.669Z,2.92
2022-09-27T00:07:48.469Z,2.45
2022-09-27T00:10:16.188Z,2.47
2022-09-27T00:12:43.090Z,2.08
2022-09-27T00:15:10.314Z,2.00
2022-09-27T00:17:38.878Z,1.95
2022-09-27T00:20:07.306Z,2.30
2022-09-27T00:22:34.355Z,1.50
2022-09-27T00:25:00.985Z,1.70
2022-09-27T00:27:27.874Z,1.80
2022-09-27T00:29:55.042Z,1.38
2022-09-27T00:32:21.751Z,1.42
2022-09-27T00:34:48.406Z,1.60
2022-09-27T00:37:15.078Z,1.77
2022-09-27T00:39:41.757Z,1.83
2022-09-27T00:42:12.412Z,1.60
2022-09-27T00:44:39.515Z,1.85
2022-09-27T00:47:41.470Z,2.03
2022-09-27T00:50:27.880Z,2.10
2022-09-27T00:53:14.665Z,2.25
2022-09-27T00:55:46.715Z,2.38
2022-09-27T00:58:18.383Z,1.90
2022-09-27T01:00:48.398Z,2.10
2022-09-27T01:03:38.668Z,2.20
2022-09-27T01:06:10.426Z,2.60
2022-09-27T01:08:37.211Z,2.75
2022-09-27T01:11:28.122Z,2.40
2022-09-27T01:14:19.025Z,2.17
2022-09-27T01:16:54.942Z,2.63
2022-09-27T01:20:05.452Z,2.30
2022-09-27T01:22:56.476Z,2.72
2022-09-27T01:25:41.673Z,2.42
2022-09-27T01:28:17.491Z,2.33
2022-09-27T01:30:47.949Z,2.72
2022-09-27T01:33:42.054Z,2.05
2022-09-27T01:36:46.478Z,2.83
2022-09-27T01:39:22.268Z,2.38
2022-09-27T01:42:16.440Z,2.47
2022-09-27T01:45:02.176Z,2.22
2022-09-27T01:47:39.397Z,2.60
2022-09-27T01:50:15.038Z,2.53
2022-09-27T01:52:48.121Z,2.30
2022-09-27T01:55:17.797Z,2.50
2022-09-27T01:57:50.639Z,2.60
2022-09-27T02:00:17.467Z,2.83
2022-09-27T02:03:07.117Z,2.40
2022-09-27T02:05:44.728Z,2.83
2022-09-27T02:08:27.685Z,2.15
2022-09-27T02:10:57.918Z,2.40
2022-09-27T02:13:31.104Z,2.25
2022-09-27T02:16:09.731Z,2.00
2022-09-27T02:18:54.846Z,1.90
2022-09-27T02:21:31.465Z,1.95
2022-09-27T02:24:00.997Z,1.70
2022-09-27T02:26:42.097Z,1.80
2022-09-27T02:29:14.542Z,2.20
2022-09-27T02:31:41.469Z,1.73
2022-09-27T02:34:19.595Z,1.90
2022-09-27T02:36:47.206Z,1.80
2022-09-27T02:39:14.130Z,1.90
2022-09-27T02:41:40.920Z,1.70
2022-09-27T02:44:11.968Z,1.85
2022-09-27T02:47:04.037Z,1.63
2022-09-27T02:49:30.787Z,1.73
2022-09-27T02:52:06.952Z,1.05
2022-09-27T02:55:10.924Z,1.40
2022-09-27T02:57:48.406Z,1.40
2022-09-27T03:00:21.409Z,1.40
2022-09-27T03:03:12.331Z,1.30
2022-09-27T03:05:54.540Z,1.58
2022-09-27T03:08:21.302Z,1.35
2022-09-27T03:10:48.623Z,1.50
2022-09-27T03:13:15.292Z,1.40
2022-09-27T03:15:41.920Z,1.20
2022-09-27T03:18:08.562Z,1.20
2022-09-27T03:20:35.165Z,2.45
2022-09-27T03:23:01.910Z,1.30
2022-09-27T03:25:28.519Z,0.93
2022-09-27T03:27:55.141Z,1.30
2022-09-27T03:30:21.746Z,1.23
2022-09-27T03:32:48.699Z,1.30
2022-09-27T03:35:15.371Z,1.27
2022-09-27T03:37:42.557Z,1.15
2022-09-27T03:40:10.065Z,1.20
2022-09-27T03:42:37.806Z,1.30
2022-09-27T03:45:04.869Z,1.17
2022-09-27T03:47:31.536Z,1.27
2022-09-27T03:49:58.161Z,1.30
2022-09-27T03:52:24.934Z,0.93
2022-09-27T03:54:51.771Z,1.00
2022-09-27T03:57:18.435Z,1.05
2022-09-27T03:59:45.139Z,1.00
2022-09-27T04:02:11.915Z,1.13
2022-09-27T04:04:38.574Z,1.05
2022-09-27T04:07:05.190Z,1.02
2022-09-27T04:09:31.882Z,1.23
2022-09-27T04:11:58.675Z,1.10
2022-09-27T04:14:25.365Z,0.98
2022-09-27T04:16:52.396Z,0.90
2022-09-27T04:19:19.070Z,2.03
2022-09-27T04:21:45.849Z,1.02
2022-09-27T04:24:12.506Z,1.17
2022-09-27T04:26:40.124Z,0.90
2022-09-27T04:29:09.654Z,1.10
2022-09-27T04:31:37.872Z,0.98
2022-09-27T04:34:05.381Z,1.17
2022-09-27T04:36:32.525Z,1.25
2022-09-27T04:39:02.386Z,0.80
2022-09-27T04:41:29.597Z,0.85
2022-09-27T04:43:59.400Z,1.25
2022-09-27T04:46:27.122Z,1.20
2022-09-27T04:48:53.857Z,0.82
2022-09-27T04:51:20.957Z,1.20
2022-09-27T04:53:48.004Z,0.95
2022-09-27T04:56:15.902Z,1.08
2022-09-27T04:58:42.633Z,1.00
2022-09-27T05:01:09.794Z,1.00
2022-09-27T05:03:36.831Z,0.90
2022-09-27T05:06:03.582Z,0.90
2022-09-27T05:08:30.299Z,0.88
2022-09-27T05:10:56.946Z,1.20
2022-09-27T05:13:23.654Z,0.82
2022-09-27T05:15:50.350Z,0.70
2022-09-27T05:18:18.008Z,0.95
2022-09-27T05:20:45.035Z,0.80
2022-09-27T05:23:11.836Z,0.95
2022-09-27T05:25:38.624Z,1.08
2022-09-27T05:28:06.096Z,0.88
2022-09-27T05:30:32.841Z,0.80
2022-09-27T05:32:59.527Z,0.90
2022-09-27T05:35:26.383Z,0.77
2022-09-27T05:37:58.744Z,1.00
2022-09-27T05:40:42.315Z,1.25
2022-09-27T05:43:09.440Z,1.10
2022-09-27T05:45:36.626Z,0.95
2022-09-27T05:48:04.135Z,0.60
2022-09-27T05:50:31.087Z,0.60
2022-09-27T05:52:57.898Z,0.93
2022-09-27T05:55:24.543Z,0.80
2022-09-27T05:58:01.711Z,1.10
2022-09-27T06:00:29.074Z,0.77
2022-09-27T06:03:03.919Z,1.48
2022-09-27T06:05:34.449Z,0.80
2022-09-27T06:08:03.261Z,0.80
2022-09-27T06:10:31.210Z,1.17
2022-09-27T06:13:02.526Z,0.95
2022-09-27T06:15:31.379Z,0.90
2022-09-27T06:18:02.371Z,0.73
2022-09-27T06:20:29.006Z,0.98
2022-09-27T06:22:56.066Z,0.90
2022-09-27T06:25:22.773Z,1.20
2022-09-27T06:27:49.539Z,1.10
2022-09-27T06:30:20.242Z,0.85
2022-09-27T06:32:47.286Z,1.20
2022-09-27T06:35:14.065Z,1.00
2022-09-27T06:37:40.724Z,1.10
2022-09-27T06:40:09.101Z,1.02
2022-09-27T06:42:35.746Z,1.20
2022-09-27T06:45:02.371Z,1.00
2022-09-27T06:47:29.954Z,0.93
2022-09-27T06:49:56.625Z,1.10
2022-09-27T06:52:23.276Z,0.90
2022-09-27T06:54:50.030Z,1.23
2022-09-27T06:57:36.672Z,0.90
2022-09-27T07:00:21.887Z,0.90
2022-09-27T07:02:48.576Z,0.77
2022-09-27T07:05:15.461Z,1.08
2022-09-27T07:07:43.952Z,0.80
2022-09-27T07:10:11.079Z,0.80
2022-09-27T07:12:37.956Z,0.82
2022-09-27T07:15:05.501Z,1.02
2022-09-27T07:17:32.488Z,0.95
2022-09-27T07:19:59.110Z,0.90
2022-09-27T07:22:25.772Z,1.00
2022-09-27T07:24:52.429Z,0.80
2022-09-27T07:27:19.064Z,0.90
2022-09-27T07:29:45.944Z,0.90
2022-09-27T07:32:12.647Z,0.90
2022-09-27T07:34:39.378Z,0.80
2022-09-27T07:37:06.014Z,0.60
2022-09-27T07:39:32.779Z,1.00
2022-09-27T07:41:59.395Z,1.10
2022-09-27T07:44:26.445Z,0.80
2022-09-27T07:46:53.053Z,0.90
2022-09-27T07:49:19.844Z,1.00
2022-09-27T07:51:46.466Z,0.80
2022-09-27T07:54:13.093Z,0.80
2022-09-27T07:56:39.709Z,0.95
2022-09-27T07:59:06.384Z,1.05
2022-09-27T08:01:34.543Z,0.77
2022-09-27T08:04:01.388Z,0.90
2022-09-27T08:06:28.263Z,0.70
2022-09-27T08:08:55.054Z,0.80
2022-09-27T08:11:21.819Z,0.80
2022-09-27T08:13:49.744Z,1.30
2022-09-27T08:16:16.588Z,1.17
2022-09-27T08:18:43.263Z,1.00
2022-09-27T08:21:10.138Z,1.10
2022-09-27T08:23:37.014Z,0.98
2022-09-27T08:26:03.630Z,0.88
2022-09-27T08:28:31.501Z,0.95
2022-09-27T08:31:01.618Z,0.70
2022-09-27T08:33:32.419Z,0.80
2022-09-27T08:36:01.742Z,0.95
2022-09-27T08:38:28.596Z,1.08
2022-09-27T08:41:03.979Z,1.08
2022-09-27T08:44:08.585Z,1.33
2022-09-27T08:46:58.998Z,1.38
2022-09-27T08:49:53.737Z,1.30
2022-09-27T08:52:35.422Z,1.70
2022-09-27T08:55:22.128Z,1.90
2022-09-27T08:57:55.233Z,1.40
2022-09-27T09:00:22.111Z,1.60
2022-09-27T09:02:49.026Z,1.65
2022-09-27T09:05:30.146Z,1.67
2022-09-27T09:08:31.218Z,1.50
2022-09-27T09:11:35.014Z,1.70
2022-09-27T09:14:30.309Z,1.80
2022-09-27T09:17:30.255Z,1.50
2022-09-27T09:20:17.423Z,1.75
2022-09-27T09:22:57.795Z,1.70
2022-09-27T09:25:36.366Z,1.55
2022-09-27T09:28:15.098Z,1.60
2022-09-27T09:30:55.242Z,1.60
2022-09-27T09:33:32.457Z,1.88
2022-09-27T09:36:10.759Z,1.80
2022-09-27T09:38:43.313Z,1.20
2022-09-27T09:41:28.537Z,1.33
2022-09-27T09:44:15.641Z,1.52
2022-09-27T09:46:47.728Z,1.60
2022-09-27T09:49:21.787Z,1.50
2022-09-27T09:51:56.645Z,1.35
2022-09-27T09:54:31.826Z,1.60
2022-09-27T09:57:06.666Z,1.42
2022-09-27T10:00:02.205Z,1.55
2022-09-27T10:02:40.241Z,1.30
2022-09-27T10:05:08.195Z,1.60
2022-09-27T10:07:38.586Z,1.77
2022-09-27T10:10:07.684Z,2.03
2022-09-27T10:12:36.508Z,1.70
2022-09-27T10:15:05.430Z,1.80
2022-09-27T10:17:41.629Z,2.10
2022-09-27T10:20:21.427Z,1.85
2022-09-27T10:22:54.460Z,2.45
2022-09-27T10:25:21.555Z,2.90
2022-09-27T10:27:54.515Z,2.45
2022-09-27T10:30:28.804Z,2.75
2022-09-27T10:33:00.923Z,2.50
2022-09-27T10:35:33.292Z,2.70
2022-09-27T10:38:21.743Z,3.00
2022-09-27T10:40:53.855Z,3.42
2022-09-27T10:43:33.846Z,3.38
2022-09-27T10:46:16.088Z,2.72
2022-09-27T10:48:43.092Z,3.42
2022-09-27T10:51:32.176Z,3.28
2022-09-27T10:54:00.931Z,3.40
2022-09-27T10:56:35.331Z,2.92
2022-09-27T10:59:04.115Z,3.30
2022-09-27T11:01:50.078Z,3.30
2022-09-27T11:04:21.271Z,3.25
2022-09-27T11:06:49.110Z,2.75
2022-09-27T11:09:23.130Z,2.75
2022-09-27T11:11:50.784Z,2.60
2022-09-27T11:14:25.115Z,2.80
2022-09-27T11:17:13.334Z,2.60
2022-09-27T11:20:01.761Z,2.88
2022-09-27T11:22:46.645Z,2.83
2022-09-27T11:25:41.644Z,3.05
2022-09-27T11:28:14.673Z,2.83
2022-09-27T11:48:05.498Z,2.72
2022-09-27T11:50:35.334Z,2.80
2022-09-27T11:53:11.481Z,2.50
2022-09-27T11:55:50.411Z,2.47
2022-09-27T11:58:29.405Z,2.35
2022-09-27T12:01:06.944Z,2.17
2022-09-27T12:03:33.926Z,1.80
2022-09-27T12:06:06.969Z,1.50
2022-09-27T12:08:42.878Z,1.63
2022-09-27T12:11:13.833Z,1.60
2022-09-27T12:13:43.628Z,1.80
2022-09-27T12:16:12.400Z,1.40
2022-09-27T12:18:40.378Z,1.40
2022-09-27T12:21:09.550Z,1.60
2022-09-27T12:23:42.996Z,1.10
2022-09-27T12:26:21.328Z,1.30
2022-09-27T12:28:59.062Z,1.40
2022-09-27T12:31:32.213Z,1.10
2022-09-27T12:34:05.085Z,1.10
2022-09-27T12:36:38.360Z,0.90
2022-09-27T12:39:19.225Z,0.90
2022-09-27T12:41:49.978Z,1.00
2022-09-27T12:44:17.045Z,1.02
2022-09-27T12:46:44.359Z,1.55
2022-09-27T12:49:11.596Z,1.30
2022-09-27T12:51:45.214Z,1.70
2022-09-27T12:54:29.051Z,1.33
2022-09-27T12:57:18.005Z,1.30
2022-09-27T12:59:51.370Z,1.30
2022-09-27T13:03:14.620Z,1.10
2022-09-27T13:05:37.584Z,1.20
2022-09-27T13:08:10.860Z,1.17
2022-09-27T13:10:58.148Z,1.10
2022-09-27T13:13:34.187Z,0.80
2022-09-27T13:16:03.735Z,1.00
2022-09-27T13:18:30.846Z,0.80
2022-09-27T13:20:58.085Z,0.88
2022-09-27T13:23:31.553Z,1.00
2022-09-27T13:26:09.660Z,0.50
2022-09-27T13:28:58.328Z,0.77
2022-09-27T13:31:44.460Z,0.70
2022-09-27T13:34:31.601Z,0.50
2022-09-27T13:36:58.836Z,0.63
2022-09-27T13:39:25.856Z,0.88
2022-09-27T13:41:56.769Z,0.80
2022-09-27T13:44:47.104Z,1.13
2022-09-27T13:47:19.029Z,0.90
2022-09-27T13:49:48.396Z,1.02
2022-09-27T13:52:20.823Z,1.00
2022-09-27T13:54:52.546Z,0.90
2022-09-27T13:57:38.144Z,0.98
2022-09-27T14:00:08.806Z,1.38
2022-09-27T14:02:54.360Z,1.10
2022-09-27T14:05:24.014Z,1.20
2022-09-27T14:07:52.272Z,0.90
2022-09-27T14:10:22.774Z,1.25
2022-09-27T14:12:50.840Z,1.40
2022-09-27T14:15:25.702Z,1.42
2022-09-27T14:17:53.220Z,1.30
2022-09-27T14:20:56.186Z,1.30
2022-09-27T14:23:24.562Z,1.30
2022-09-27T14:25:53.122Z,1.40
2022-09-27T14:28:25.423Z,1.17
2022-09-27T14:31:07.689Z,1.42
2022-09-27T14:33:35.277Z,1.70
2022-09-27T14:36:23.818Z,1.35
2022-09-27T14:38:51.909Z,1.30
2022-09-27T14:41:19.042Z,1.38
2022-09-27T14:43:49.407Z,1.35
2022-09-27T14:46:27.384Z,1.42
2022-09-27T14:48:55.399Z,2.30
2022-09-27T14:51:27.842Z,1.70
2022-09-27T14:53:58.358Z,1.20
2022-09-27T14:56:27.559Z,1.75
2022-09-27T14:59:02.253Z,2.92
2022-09-27T15:01:30.376Z,3.80
2022-09-27T15:04:05.430Z,1.77
2022-09-27T15:06:32.586Z,1.85
2022-09-27T15:09:00.471Z,1.63
2022-09-27T15:11:29.814Z,1.90
2022-09-27T15:13:58.410Z,1.60
2022-09-27T15:16:26.668Z,1.77
2022-09-27T15:19:03.050Z,1.38
2022-09-27T15:21:34.274Z,1.08
2022-09-27T15:24:02.591Z,0.90
2022-09-27T15:26:37.979Z,0.60
2022-09-27T15:29:05.331Z,0.90
2022-09-27T15:31:34.693Z,0.70
2022-09-27T15:34:02.701Z,0.60
2022-09-27T15:36:49.785Z,0.82
2022-09-27T15:39:21.832Z,0.98
2022-09-27T15:42:04.153Z,1.08
2022-09-27T15:44:44.782Z,0.90
2022-09-27T15:47:31.848Z,0.90
2022-09-27T15:50:19.135Z,0.80
2022-09-27T15:52:51.885Z,0.77
2022-09-27T15:55:20.265Z,0.95
2022-09-27T15:57:50.337Z,1.00
2022-09-27T16:00:18.546Z,1.00
2022-09-27T16:02:45.876Z,1.27
2022-09-27T16:05:13.099Z,1.42
2022-09-27T16:07:40.173Z,1.50
2022-09-27T16:10:20.386Z,1.45
2022-09-27T16:12:47.488Z,1.40
2022-09-27T16:15:15.355Z,1.40
2022-09-27T16:17:43.573Z,1.45
2022-09-27T16:20:17.577Z,2.03
2022-09-27T16:22:44.762Z,1.42
2022-09-27T16:25:12.214Z,1.25
2022-09-27T16:27:39.297Z,1.40
2022-09-27T16:30:06.697Z,1.40
2022-09-27T16:32:34.368Z,1.23
2022-09-27T16:35:01.388Z,1.30
2022-09-27T16:37:30.168Z,1.23
2022-09-27T16:39:57.327Z,1.13
2022-09-27T16:42:24.479Z,1.58
2022-09-27T16:44:51.990Z,1.80
2022-09-27T16:47:19.031Z,2.67
2022-09-27T16:50:04.909Z,2.78
2022-09-27T16:52:33.123Z,1.65
2022-09-27T16:55:00.515Z,2.20
2022-09-27T16:57:33.504Z,1.83
2022-09-27T17:00:01.042Z,1.70
2022-09-27T17:02:28.246Z,1.38
2022-09-27T17:04:55.281Z,1.40
2022-09-27T17:07:25.011Z,1.60
2022-09-27T17:09:52.078Z,1.65
2022-09-27T17:12:19.098Z,1.70
2022-09-27T17:14:46.098Z,1.95
2022-09-27T17:17:13.137Z,2.20
2022-09-27T17:19:40.161Z,2.40
2022-09-27T17:22:08.590Z,2.80
2022-09-27T17:24:36.216Z,2.42
2022-09-27T17:27:03.582Z,2.20
2022-09-27T17:29:30.942Z,2.30
2022-09-27T17:31:58.164Z,2.30
2022-09-27T17:34:25.754Z,2.00
2022-09-27T17:36:52.860Z,2.38
2022-09-27T17:39:21.173Z,2.03
2022-09-27T17:41:52.001Z,2.20
2022-09-27T17:44:19.885Z,1.85
2022-09-27T17:46:47.582Z,1.85
2022-09-27T17:49:33.918Z,1.92
2022-09-27T17:52:01.209Z,2.28
2022-09-27T17:54:28.485Z,5.85
2022-09-27T17:56:56.466Z,5.40
2022-09-27T17:59:23.596Z,3.72
2022-09-27T18:01:50.799Z,3.03
2022-09-27T18:04:19.775Z,2.72
2022-09-27T18:06:47.442Z,2.78
2022-09-27T18:09:16.042Z,2.00
2022-09-27T18:11:44.014Z,2.25
2022-09-27T18:14:11.112Z,3.20
2022-09-27T18:16:41.193Z,2.60
2022-09-27T18:19:09.060Z,1.85
2022-09-27T18:21:36.099Z,2.20
2022-09-27T18:24:06.002Z,2.10
2022-09-27T18:26:34.916Z,2.70
2022-09-27T18:29:03.580Z,2.15
2022-09-27T18:31:31.043Z,2.00
2022-09-27T18:33:58.272Z,2.00
2022-09-27T18:36:26.206Z,2.20
2022-09-27T18:38:54.827Z,2.05
2022-09-27T18:41:22.829Z,2.17
2022-09-27T18:43:55.129Z,2.05
2022-09-27T18:46:37.649Z,2.70
2022-09-27T18:49:05.940Z,2.20
2022-09-27T18:51:33.438Z,3.28
2022-09-27T18:54:01.596Z,2.35
2022-09-27T18:56:29.391Z,2.30
2022-09-27T18:58:57.001Z,2.58
2022-09-27T19:01:25.469Z,3.13
2022-09-27T19:03:53.381Z,2.65
2022-09-27T19:06:23.688Z,2.58
2022-09-27T19:08:58.616Z,1.27
2022-09-27T19:11:27.272Z,2.53
2022-09-27T19:13:55.453Z,2.85
2022-09-27T19:16:23.345Z,2.40
2022-09-27T19:18:50.796Z,2.78
2022-09-27T19:21:18.884Z,4.15
2022-09-27T19:23:46.217Z,3.90
2022-09-27T19:26:14.550Z,1.90
2022-09-27T19:28:43.012Z,2.72
2022-09-27T19:31:12.778Z,2.53
2022-09-27T19:33:42.445Z,2.65
2022-09-27T19:36:10.720Z,3.10
2022-09-27T19:38:38.602Z,2.05
2022-09-27T19:41:06.938Z,3.22
2022-09-27T19:43:34.087Z,4.30
2022-09-27T19:46:19.608Z,5.47
2022-09-27T19:48:47.326Z,2.53
2022-09-27T19:51:24.595Z,0.70
2022-09-27T19:53:54.510Z,3.72
2022-09-27T19:56:21.966Z,3.63
2022-09-27T19:58:49.024Z,3.97
2022-09-27T20:01:20.626Z,4.30
2022-09-27T20:03:47.944Z,4.53
2022-09-27T20:06:16.274Z,4.57
2022-09-27T20:08:43.853Z,3.03
2022-09-27T20:11:10.893Z,3.13
2022-09-27T20:13:38.259Z,2.28
2022-09-27T20:16:05.517Z,2.40
2022-09-27T20:18:32.613Z,2.30
2022-09-27T20:21:01.021Z,1.60
2022-09-27T20:23:28.318Z,1.40
2022-09-27T20:26:01.689Z,1.33
2022-09-27T20:28:28.979Z,1.30
2022-09-27T20:30:57.186Z,1.10
2022-09-27T20:33:42.460Z,1.10
2022-09-27T20:36:09.616Z,1.30
2022-09-27T20:38:36.812Z,1.38
2022-09-27T20:41:03.933Z,1.20
2022-09-27T20:43:31.485Z,1.67
2022-09-27T20:46:02.458Z,3.13
2022-09-27T20:48:29.643Z,1.40
2022-09-27T20:51:00.293Z,1.73
2022-09-27T20:53:30.904Z,1.52
2022-09-27T20:56:04.613Z,1.55
2022-09-27T20:58:32.554Z,1.27
2022-09-27T21:01:05.522Z,1.50
2022-09-27T21:03:32.624Z,2.25
2022-09-27T21:05:59.882Z,2.13
2022-09-27T21:08:30.250Z,1.70
2022-09-27T21:11:03.887Z,1.15
2022-09-27T21:13:30.959Z,1.00
2022-09-27T21:16:05.084Z,1.00
2022-09-27T21:18:32.285Z,1.10
2022-09-27T21:21:00.468Z,1.27
2022-09-27T21:23:29.668Z,1.30
2022-09-27T21:26:03.875Z,1.35
2022-09-27T21:28:34.718Z,1.60
2022-09-27T21:31:03.628Z,2.17
2022-09-27T21:33:30.819Z,1.77
2022-09-27T21:35:58.119Z,1.48
2022-09-27T21:38:25.461Z,1.70
2022-09-27T21:40:56.300Z,1.40
2022-09-27T21:43:27.320Z,1.15
2022-09-27T21:45:54.375Z,11.32
2022-09-27T21:48:21.423Z,3.22
2022-09-27T21:50:49.397Z,7.57
2022-09-27T21:53:16.423Z,3.05
2022-09-27T21:55:43.485Z,2.00
2022-09-27T21:58:10.975Z,1.35
2022-09-27T22:00:38.189Z,1.80
2022-09-27T22:03:05.303Z,1.90
2022-09-27T22:05:33.416Z,1.60
2022-09-27T22:08:00.494Z,1.73
2022-09-27T22:10:27.494Z,1.40
2022-09-27T22:12:54.699Z,1.45
2022-09-27T22:15:22.133Z,1.20
2022-09-27T22:17:49.221Z,1.10
2022-09-27T22:20:16.333Z,1.20
2022-09-27T22:22:43.359Z,0.90
2022-09-27T22:25:10.405Z,1.35
2022-09-27T22:27:37.509Z,1.20
2022-09-27T22:30:04.855Z,1.30
2022-09-27T22:32:31.865Z,1.30
2022-09-27T22:34:58.856Z,0.90
2022-09-27T22:37:25.876Z,1.08
2022-09-27T22:39:52.928Z,0.90
2022-09-27T22:42:20.583Z,1.00
2022-09-27T22:44:47.681Z,1.27
2022-09-27T22:47:14.671Z,1.30
2022-09-27T22:49:41.693Z,1.30
2022-09-27T22:52:09.093Z,1.20
2022-09-27T22:54:36.759Z,1.75
2022-09-27T22:57:03.865Z,1.73
2022-09-27T22:59:30.844Z,1.35
2022-09-27T23:01:57.898Z,1.20
2022-09-27T23:04:24.942Z,1.58
2022-09-27T23:06:52.032Z,1.60
2022-09-27T23:09:19.026Z,1.80
2022-09-27T23:11:46.109Z,1.73
2022-09-27T23:14:14.909Z,1.85
2022-09-27T23:16:42.115Z,1.92
2022-09-27T23:19:10.043Z,2.00
2022-09-27T23:21:37.141Z,1.90
2022-09-27T23:24:04.192Z,1.83
2022-09-27T23:26:31.271Z,2.08
2022-09-27T23:28:59.917Z,1.90
2022-09-27T23:31:29.528Z,2.20
2022-09-27T23:33:57.672Z,2.38
2022-09-27T23:36:26.733Z,2.58
2022-09-27T23:38:59.165Z,2.63
2022-09-27T23:41:27.465Z,2.17
2022-09-27T23:43:54.611Z,2.20
2022-09-27T23:46:21.743Z,1.80
2022-09-27T23:48:48.960Z,2.03
2022-09-27T23:51:16.054Z,1.83
2022-09-27T23:53:44.435Z,1.90
2022-09-27T23:56:13.160Z,1.90
2022-09-27T23:58:41.186Z,2.45
